Flight Information

DEPARTURE
SAN DIEGO/EL CAJON, CA
Elevation:
387
Runways:
17/35 - 4145x100 - ASPH-G
9L/27R - 5342x100 - ASPH-G
9R/27L - 2738x60 - ASPH-G
Active PE Departure:
27L - 27R
Current PE ATIS:
E
Altimeter:
Remarks:
ATIS:
125.45 619-449-1228
Clearance Delivery:
125.1
Ground:
121.7
Tower:
120.7 123.8
DESTINATION
,
Elevation:
TPA:
1000 (est.)


6744 NM75° True-13° Var61° HDG

Flight Plan:
(click to file on line)

1. Type
2. Aircraft Identification
3. Aircraft Type / Special Equipment
4. True Airspeed
kts
5. Departure Airport
(ICAO code)
6. Arriving Airport
(ICAO code)
7. Cruising Altitude
ft
8. Alternate Airport
(ICAO code)
9. Route of Flight
10. Remarks


00:00:00 Departure ATIS: Destination ATIS:

Clearance Limit:
Route:
Altitude: Expect in minutes
Frequency:
Transponder: (7500 Hijack / 7600 Lost Comms / 7700 Emergency)


KSEE 251847Z 26020G26KT 10SM FEW035 SCT046 BKN080 11/02 A2984
Time: 2021-01-25T18:47:00Z
1611602099
Winds: 260 @ 20 kts
Gusting:26 kts
Visibility: 10.0 sm
Clouds (AGL): FEW 3500
SCT 4600
BKN 8000
Temperature: 11.0 C
Dew Point: 2.0 C
Pressure: 29.840551 in Hgbr


Notes:

Data extracted from FAA Digital Chart Supplement. Effective: 0901Z Thursday, Dec 31, 2020 to 0901Z Thursday, Jan 28, 2021
Current ATIS data is provided courtisy of PilotEdge.